Time;durP1;ratioP1;P1;durP2;ratioP2;P2;SDS_P1;SDS_P2;PMS_P1;PMS_P2;Temp;Humidity;BMP_temperature;BMP_pressure;BME280_temperature;BME280_humidity;BME280_pressure;Samples;Min_cycle;Max_cycle;Signal;HPM_P1;HPM_P2
2023/06/06 00:01:09;;;;;;;;;;;;;;;12.97;86.05;102073.88;5011067;28;19929;-47
2023/06/06 00:03:34;;;;;;;;;;;;;;;12.93;86.40;102070.31;5011690;28;20368;-48
2023/06/06 00:06:00;;;;;;;;;;;;;;;12.88;85.41;102072.69;5009923;28;20010;-45
2023/06/06 00:08:28;;;;;;;;;;;;;;;12.87;84.03;102073.53;5017469;28;20075;-48
2023/06/06 00:10:53;;;;;;;;;;;;;;;12.86;88.20;102073.44;5019327;28;19920;-45
2023/06/06 00:13:20;;;;;;;;;;;;;;;12.80;87.57;102070.63;5017504;28;19914;-46
2023/06/06 00:15:45;;;;;;;;;;;;;;;12.81;86.96;102073.31;5015391;28;19929;-47
2023/06/06 00:18:11;;;;;;;;;;;;;;;12.73;88.34;102079.84;5020375;28;19929;-46
2023/06/06 00:20:38;;;;;;;;;;;;;;;12.68;88.10;102083.06;5015829;28;19937;-48
2023/06/06 00:23:04;;;;;;;;;;;;;;;12.63;89.61;102075.19;5018057;28;19929;-45
2023/06/06 00:25:29;;;;;;;;;;;;;;;12.59;87.54;102075.88;5018818;28;19918;-47
2023/06/06 00:27:55;;;;;;;;;;;;;;;12.56;89.91;102070.59;5020749;28;20407;-47
2023/06/06 00:30:20;;;;;;;;;;;;;;;12.53;89.69;102076.50;5018860;28;20483;-47
2023/06/06 00:32:45;;;;;;;;;;;;;;;12.47;88.84;102073.69;5017004;28;19967;-44
2023/06/06 00:35:11;;;;;;;;;;;;;;;12.41;88.13;102072.56;5019663;28;20418;-45
2023/06/06 00:37:36;;;;;;;;;;;;;;;12.35;87.65;102076.66;5018107;28;19924;-45
2023/06/06 00:40:01;;;;;;;;;;;;;;;12.31;88.86;102071.28;5016458;28;19917;-47
2023/06/06 00:42:26;;;;;;;;;;;;;;;12.25;89.20;102071.94;5016835;28;19968;-48
2023/06/06 00:44:52;;;;;;;;;;;;;;;12.21;89.76;102079.50;5016397;28;19997;-48
2023/06/06 00:47:17;;;;;;;;;;;;;;;12.17;90.99;102080.19;5027351;28;19921;-45
2023/06/06 00:49:44;;;;;;;;;;;;;;;12.13;90.27;102081.75;5023083;28;19932;-45
2023/06/06 00:52:10;;;;;;;;;;;;;;;12.10;91.37;102091.06;5022431;28;19945;-46
2023/06/06 00:54:35;;;;;;;;;;;;;;;12.04;91.01;102087.41;5016633;28;20122;-46
2023/06/06 00:57:01;;;;;;;;;;;;;;;12.00;90.00;102082.94;5019437;28;20379;-44
2023/06/06 00:59:26;;;;;;;;;;;;;;;11.97;90.95;102076.78;5017494;28;20000;-44
2023/06/06 01:01:52;;;;;;;;;;;;;;;11.92;90.65;102078.28;5017554;28;19924;-45
2023/06/06 01:04:18;;;;;;;;;;;;;;;11.88;91.08;102081.56;5015370;28;19921;-47
2023/06/06 01:06:43;;;;;;;;;;;;;;;11.84;89.03;102077.97;5017319;28;19925;-44
2023/06/06 01:09:10;;;;;;;;;;;;;;;11.82;90.46;102074.44;5016186;28;19979;-44
2023/06/06 01:12:14;;;;;;;;;;;;;;;11.75;92.95;102073.28;5026817;28;19919;-46
2023/06/06 01:14:56;;;;;;;;;;;;;;;11.68;92.56;102078.97;5040687;28;19940;-45
2023/06/06 01:17:25;;;;;;;;;;;;;;;11.67;90.73;102082.38;5039887;28;19916;-47
2023/06/06 01:19:51;;;;;;;;;;;;;;;11.60;93.44;102080.34;5029300;28;19928;-48
2023/06/06 01:22:22;;;;;;;;;;;;;;;11.54;92.19;102078.41;5012412;28;19917;-45
2023/06/06 01:24:49;;;;;;;;;;;;;;;11.52;93.77;102080.00;5023410;28;19917;-45
2023/06/06 01:27:15;;;;;;;;;;;;;;;11.49;95.30;102081.59;5016563;28;19917;-45
2023/06/06 01:29:40;;;;;;;;;;;;;;;11.45;93.26;102077.97;5015114;28;19978;-44
2023/06/06 01:32:12;;;;;;;;;;;;;;;11.40;94.42;102079.47;5012929;28;20288;-45
2023/06/06 01:34:55;;;;;;;;;;;;;;;11.34;94.49;102080.91;5017443;28;19921;-47
2023/06/06 01:37:29;;;;;;;;;;;;;;;11.30;93.22;102072.16;5021233;28;19922;-48
2023/06/06 01:39:56;;;;;;;;;;;;;;;11.27;93.33;102079.75;5016998;28;20375;-47
2023/06/06 01:42:22;;;;;;;;;;;;;;;11.25;91.08;102074.53;5014239;28;19967;-47
2023/06/06 01:44:50;;;;;;;;;;;;;;;11.23;91.21;102083.91;5014037;28;19918;-45
2023/06/06 01:47:16;;;;;;;;;;;;;;;11.19;91.56;102078.53;5019007;28;20291;-44
2023/06/06 01:49:42;;;;;;;;;;;;;;;11.18;94.10;102080.22;5025494;28;19929;-45
2023/06/06 01:52:08;;;;;;;;;;;;;;;11.16;91.85;102075.81;5028333;28;19924;-45
2023/06/06 01:54:34;;;;;;;;;;;;;;;11.12;93.00;102069.66;5027431;28;19917;-48
2023/06/06 01:57:00;;;;;;;;;;;;;;;11.09;94.87;102066.94;5022481;28;19924;-48
2023/06/06 01:59:25;;;;;;;;;;;;;;;11.06;97.60;102079.69;5020815;28;20334;-46
2023/06/06 02:01:50;;;;;;;;;;;;;;;11.02;92.65;102068.34;5018296;28;20300;-46
2023/06/06 02:04:16;;;;;;;;;;;;;;;11.02;91.57;102075.19;5017521;28;19929;-47
2023/06/06 02:06:41;;;;;;;;;;;;;;;10.97;95.38;102071.53;5013632;28;19921;-47
2023/06/06 02:09:06;;;;;;;;;;;;;;;10.93;95.47;102067.94;5014855;28;20265;-44
2023/06/06 02:11:31;;;;;;;;;;;;;;;10.89;95.92;102067.72;5012049;28;19921;-44
2023/06/06 02:13:57;;;;;;;;;;;;;;;10.87;95.47;102069.34;5013680;28;19964;-45
2023/06/06 02:16:22;;;;;;;;;;;;;;;10.85;97.28;102073.53;5016260;28;19918;-45
2023/06/06 02:18:48;;;;;;;;;;;;;;;10.82;96.38;102066.56;5016106;28;19917;-45
2023/06/06 02:21:13;;;;;;;;;;;;;;;10.78;95.66;102068.91;5012991;28;20368;-48
2023/06/06 02:23:39;;;;;;;;;;;;;;;10.77;94.64;102072.31;5017259;28;20284;-45
2023/06/06 02:26:04;;;;;;;;;;;;;;;10.73;95.70;102074.72;5020256;28;19967;-47
2023/06/06 02:28:30;;;;;;;;;;;;;;;10.72;94.91;102077.22;5022160;28;20378;-48
2023/06/06 02:30:56;;;;;;;;;;;;;;;10.68;95.26;102071.09;5016768;28;19917;-47
2023/06/06 02:33:21;;;;;;;;;;;;;;;10.68;93.77;102073.66;5020901;28;20038;-44
2023/06/06 02:35:46;;;;;;;;;;;;;;;10.64;95.95;102071.75;5016371;28;20380;-45
2023/06/06 02:38:12;;;;;;;;;;;;;;;10.62;95.73;102073.38;5020687;28;19925;-44
2023/06/06 02:40:37;;;;;;;;;;;;;;;10.61;94.81;102073.28;5014338;28;19917;-46
2023/06/06 02:43:02;;;;;;;;;;;;;;;10.59;93.70;102068.06;5021030;28;20000;-46
2023/06/06 02:45:28;;;;;;;;;;;;;;;10.58;95.37;102070.56;5012299;28;20384;-47
2023/06/06 02:47:53;;;;;;;;;;;;;;;10.54;94.44;102064.38;5011950;28;19971;-47
2023/06/06 02:50:20;;;;;;;;;;;;;;;10.50;97.18;102072.78;5010456;28;20376;-46
2023/06/06 02:52:45;;;;;;;;;;;;;;;10.47;96.36;102072.63;5017660;28;19917;-44
2023/06/06 02:55:10;;;;;;;;;;;;;;;10.45;96.05;102075.13;5020386;28;20333;-46
2023/06/06 02:57:35;;;;;;;;;;;;;;;10.43;94.88;102069.03;5018764;28;19917;-44
2023/06/06 03:00:02;;;;;;;;;;;;;;;10.41;95.46;102067.19;5016942;28;19929;-46
2023/06/06 03:02:27;;;;;;;;;;;;;;;10.39;95.93;102073.97;5021692;28;19928;-46
2023/06/06 03:04:55;;;;;;;;;;;;;;;10.36;96.21;102077.25;5020883;28;19921;-46
2023/06/06 03:07:20;;;;;;;;;;;;;;;10.34;97.57;102076.31;5019731;28;19967;-45
2023/06/06 03:09:46;;;;;;;;;;;;;;;10.33;94.90;102086.53;5020262;28;19925;-47
2023/06/06 03:12:11;;;;;;;;;;;;;;;10.30;98.49;102088.94;5017889;28;20394;-46
2023/06/06 03:14:36;;;;;;;;;;;;;;;10.26;96.73;102082.78;5019756;28;20295;-44
2023/06/06 03:17:02;;;;;;;;;;;;;;;10.22;96.34;102085.97;5016566;28;19928;-44
2023/06/06 03:19:27;;;;;;;;;;;;;;;10.22;97.89;102088.53;5021654;28;21060;-43
2023/06/06 03:21:53;;;;;;;;;;;;;;;10.19;99.37;102088.34;5016027;28;19932;-45
2023/06/06 03:24:19;;;;;;;;;;;;;;;10.16;98.61;102083.97;5028621;28;19921;-44
2023/06/06 03:26:48;;;;;;;;;;;;;;;10.14;97.02;102082.13;5021490;28;19925;-44
2023/06/06 03:29:14;;;;;;;;;;;;;;;10.13;98.94;102088.97;5010519;28;20336;-44
2023/06/06 03:31:41;;;;;;;;;;;;;;;10.10;99.24;102080.22;5021182;28;19927;-44
2023/06/06 03:34:06;;;;;;;;;;;;;;;10.08;99.29;102082.72;5016640;28;20372;-47
2023/06/06 03:36:34;;;;;;;;;;;;;;;10.05;98.91;102087.69;5017781;28;19928;-45
2023/06/06 03:39:03;;;;;;;;;;;;;;;10.07;100.00;102082.63;5015965;28;19997;-44
2023/06/06 03:41:28;;;;;;;;;;;;;;;10.05;99.33;102082.56;5016472;28;19917;-47
2023/06/06 03:43:53;;;;;;;;;;;;;;;10.06;99.41;102093.72;5014382;28;20076;-44
2023/06/06 03:46:19;;;;;;;;;;;;;;;10.05;99.55;102089.38;5012144;28;19921;-46
2023/06/06 03:48:44;;;;;;;;;;;;;;;10.05;100.00;102084.25;5014098;28;19926;-44
2023/06/06 03:51:09;;;;;;;;;;;;;;;10.04;98.66;102087.63;5016502;28;19928;-47
2023/06/06 03:53:35;;;;;;;;;;;;;;;10.06;99.82;102086.00;5017207;28;19917;-47
2023/06/06 03:56:01;;;;;;;;;;;;;;;10.07;97.57;102088.66;5016248;28;19928;-46
2023/06/06 03:58:26;;;;;;;;;;;;;;;10.12;100.00;102088.88;5025957;28;20015;-46
2023/06/06 04:00:52;;;;;;;;;;;;;;;10.13;100.00;102088.06;5021227;28;20356;-45
2023/06/06 04:03:18;;;;;;;;;;;;;;;10.13;100.00;102088.06;5027117;28;20354;-44
2023/06/06 04:05:44;;;;;;;;;;;;;;;10.11;100.00;102088.00;5025167;28;19913;-47
2023/06/06 04:08:10;;;;;;;;;;;;;;;10.13;100.00;102091.53;5025735;28;19917;-46
2023/06/06 04:10:35;;;;;;;;;;;;;;;10.15;99.02;102082.22;5018684;28;20291;-46
2023/06/06 04:13:01;;;;;;;;;;;;;;;10.20;100.00;102082.44;5015991;28;19917;-46
2023/06/06 04:15:28;;;;;;;;;;;;;;;10.20;99.20;102077.31;5019856;28;20413;-46
2023/06/06 04:17:54;;;;;;;;;;;;;;;10.21;98.00;102077.38;5020331;28;20002;-47
2023/06/06 04:20:19;;;;;;;;;;;;;;;10.24;97.56;102083.47;5019048;28;20373;-47
2023/06/06 04:22:45;;;;;;;;;;;;;;;10.33;97.89;102079.69;5024094;28;20298;-47
2023/06/06 04:25:12;;;;;;;;;;;;;;;10.66;97.24;102079.53;5026508;28;20284;-45
2023/06/06 04:27:40;;;;;;;;;;;;;;;11.05;94.67;102080.50;5021670;28;19913;-56
2023/06/06 04:30:06;;;;;;;;;;;;;;;11.47;94.32;102083.22;5014944;28;19922;-56
2023/06/06 04:32:31;;;;;;;;;;;;;;;11.76;91.77;102080.19;5013871;28;19917;-55
2023/06/06 04:34:57;;;;;;;;;;;;;;;12.11;91.58;102085.09;5017960;28;19921;-56
2023/06/06 04:37:23;;;;;;;;;;;;;;;12.35;89.68;102083.50;5020837;28;19918;-57
2023/06/06 04:39:52;;;;;;;;;;;;;;;12.59;89.11;102081.03;5019810;28;19925;-56
2023/06/06 04:42:19;;;;;;;;;;;;;;;12.75;87.74;102085.97;5020363;28;20007;-56
2023/06/06 04:44:46;;;;;;;;;;;;;;;12.80;87.13;102096.44;5016827;28;19986;-55
2023/06/06 04:47:12;;;;;;;;;;;;;;;12.87;87.17;102083.84;5022021;28;19936;-56
2023/06/06 04:49:38;;;;;;;;;;;;;;;12.98;86.71;102081.66;5014782;28;19937;-56
2023/06/06 04:52:05;;;;;;;;;;;;;;;13.06;86.03;102077.69;5019628;28;19917;-56
2023/06/06 04:54:30;;;;;;;;;;;;;;;13.14;86.16;102086.59;5017571;28;19960;-57
2023/06/06 04:56:57;;;;;;;;;;;;;;;13.30;85.43;102082.91;5013151;28;20003;-57
2023/06/06 04:59:22;;;;;;;;;;;;;;;13.43;84.18;102081.63;5013996;28;19980;-56
2023/06/06 05:01:47;;;;;;;;;;;;;;;13.54;84.26;102082.91;5018629;28;19956;-56
2023/06/06 05:04:13;;;;;;;;;;;;;;;13.69;83.34;102090.28;5015987;28;19914;-56
2023/06/06 05:06:39;;;;;;;;;;;;;;;13.77;82.51;102085.38;5017360;28;19925;-56
2023/06/06 05:09:07;;;;;;;;;;;;;;;13.97;82.43;102081.78;5021557;28;19921;-55
2023/06/06 05:11:32;;;;;;;;;;;;;;;14.17;82.01;102082.44;5016742;28;20393;-56
2023/06/06 05:13:58;;;;;;;;;;;;;;;14.13;80.37;102081.44;5021373;28;19913;-57
2023/06/06 05:16:23;;;;;;;;;;;;;;;14.14;80.83;102078.06;5018005;28;20356;-57
2023/06/06 05:18:48;;;;;;;;;;;;;;;14.18;81.37;102079.03;5023854;28;19917;-56
2023/06/06 05:21:17;;;;;;;;;;;;;;;14.26;79.90;102077.59;5019907;28;19936;-57
2023/06/06 05:23:43;;;;;;;;;;;;;;;14.23;81.23;102082.63;5016372;28;19976;-57
2023/06/06 05:26:08;;;;;;;;;;;;;;;14.11;81.35;102088.28;5020998;28;19921;-44
2023/06/06 05:28:33;;;;;;;;;;;;;;;14.22;80.73;102073.13;5014262;28;20004;-45
2023/06/06 05:31:00;;;;;;;;;;;;;;;14.47;79.93;102083.47;5014153;28;19931;-47
2023/06/06 05:33:25;;;;;;;;;;;;;;;14.58;78.05;102085.50;5016856;28;20016;-48
2023/06/06 05:35:51;;;;;;;;;;;;;;;14.72;78.96;102084.22;5012273;28;20895;-47
2023/06/06 05:38:16;;;;;;;;;;;;;;;14.87;77.80;102091.59;5015647;28;19913;-45
2023/06/06 05:40:42;;;;;;;;;;;;;;;14.93;77.95;102092.66;5019001;28;19927;-44
2023/06/06 05:43:07;;;;;;;;;;;;;;;14.92;78.82;102090.84;5018354;28;20399;-46
2023/06/06 05:45:32;;;;;;;;;;;;;;;15.17;76.46;102101.97;5025375;28;20368;-46
2023/06/06 05:47:58;;;;;;;;;;;;;;;15.30;75.95;102091.13;5026269;28;19921;-45
2023/06/06 05:50:23;;;;;;;;;;;;;;;15.63;74.59;102100.69;5025471;28;19917;-47
2023/06/06 05:52:48;;;;;;;;;;;;;;;15.69;75.72;102100.84;5013947;28;20395;-47
2023/06/06 05:55:26;;;;;;;;;;;;;;;15.73;75.42;102102.69;5015975;28;20280;-49
2023/06/06 05:57:52;;;;;;;;;;;;;;;15.83;73.23;102104.66;5012472;28;20641;-48
2023/06/06 06:00:17;;;;;;;;;;;;;;;15.82;72.84;102106.38;5014308;28;19940;-45
2023/06/06 06:02:43;;;;;;;;;;;;;;;15.92;74.16;102107.50;5019916;28;20430;-48
2023/06/06 06:05:08;;;;;;;;;;;;;;;16.05;71.62;102101.78;5022015;28;19921;-48
2023/06/06 06:07:33;;;;;;;;;;;;;;;16.27;72.61;102102.34;5024098;28;19925;-49
2023/06/06 06:09:58;;;;;;;;;;;;;;;16.28;73.20;102093.72;5020307;28;19933;-47
2023/06/06 06:12:24;;;;;;;;;;;;;;;16.29;70.48;102096.34;5022772;28;19956;-46
2023/06/06 06:14:49;;;;;;;;;;;;;;;16.24;70.64;102091.88;5020311;28;20015;-47
2023/06/06 06:17:14;;;;;;;;;;;;;;;16.24;70.06;102091.88;5017308;28;19918;-48
2023/06/06 06:19:40;;;;;;;;;;;;;;;16.30;70.18;102087.72;5024190;28;19940;-48
2023/06/06 06:22:05;;;;;;;;;;;;;;;16.38;71.62;102087.00;5015358;28;19940;-46
2023/06/06 06:24:31;;;;;;;;;;;;;;;16.51;70.60;102092.53;5019385;28;19971;-45
2023/06/06 06:26:56;;;;;;;;;;;;;;;16.65;68.78;102094.56;5019828;28;19921;-46
2023/06/06 06:29:21;;;;;;;;;;;;;;;16.57;70.03;102100.47;5018645;28;19979;-45
2023/06/06 06:31:47;;;;;;;;;;;;;;;16.58;69.05;102106.53;5017654;28;19921;-46
2023/06/06 06:34:12;;;;;;;;;;;;;;;16.71;69.81;102097.34;5017622;28;20372;-45
2023/06/06 06:36:37;;;;;;;;;;;;;;;16.86;68.56;102101.13;5016181;28;19929;-49
2023/06/06 06:39:03;;;;;;;;;;;;;;;17.04;69.36;102100.66;5013743;28;19922;-46
2023/06/06 06:41:28;;;;;;;;;;;;;;;17.36;68.38;102105.66;5013000;28;19921;-45
2023/06/06 06:43:53;;;;;;;;;;;;;;;17.59;66.35;102111.28;5019634;28;19917;-45
2023/06/06 06:46:18;;;;;;;;;;;;;;;17.61;66.53;102118.28;5016686;28;19963;-45
2023/06/06 06:48:50;;;;;;;;;;;;;;;17.62;65.71;102111.38;5013281;28;20028;-46
2023/06/06 06:51:16;;;;;;;;;;;;;;;17.54;64.25;102103.44;5012947;28;19917;-48
2023/06/06 06:53:41;;;;;;;;;;;;;;;17.45;66.65;102108.44;5012403;28;19917;-44
2023/06/06 06:56:07;;;;;;;;;;;;;;;17.53;65.95;102111.16;5010516;28;19913;-44
2023/06/06 06:58:37;;;;;;;;;;;;;;;17.61;66.08;102107.88;5018593;28;20055;-48
2023/06/06 07:01:03;;;;;;;;;;;;;;;17.63;65.41;102105.31;5011972;28;19921;-47
2023/06/06 07:03:29;;;;;;;;;;;;;;;17.58;64.13;102113.00;5012865;28;19927;-45
2023/06/06 07:05:55;;;;;;;;;;;;;;;17.70;65.08;102117.56;5011640;28;19965;-55
2023/06/06 07:08:20;;;;;;;;;;;;;;;17.82;63.83;102109.16;5014760;28;19917;-55
2023/06/06 07:10:46;;;;;;;;;;;;;;;17.81;63.96;102113.47;5022008;28;19921;-56
2023/06/06 07:13:14;;;;;;;;;;;;;;;17.84;63.04;102112.69;5016205;28;20384;-56
2023/06/06 07:15:40;;;;;;;;;;;;;;;17.75;63.88;102118.56;5018223;28;19922;-55
2023/06/06 07:18:05;;;;;;;;;;;;;;;17.88;63.58;102117.06;5014669;28;20265;-56
2023/06/06 07:20:30;;;;;;;;;;;;;;;17.79;63.60;102115.19;5022554;28;19926;-55
2023/06/06 07:22:56;;;;;;;;;;;;;;;18.02;64.61;102107.81;5024723;28;20335;-56
2023/06/06 07:25:21;;;;;;;;;;;;;;;18.21;63.14;102099.44;5022680;28;19921;-54
2023/06/06 07:27:47;;;;;;;;;;;;;;;18.40;63.20;102107.53;5017450;28;20008;-55
2023/06/06 07:30:12;;;;;;;;;;;;;;;18.58;62.17;102099.13;5017229;28;19932;-54
2023/06/06 07:32:45;;;;;;;;;;;;;;;18.70;61.97;102110.63;5016749;28;19917;-55
2023/06/06 07:35:10;;;;;;;;;;;;;;;18.75;60.71;102108.97;5014560;28;19944;-56
2023/06/06 07:37:38;;;;;;;;;;;;;;;18.65;61.89;102099.25;5017362;28;20357;-55
2023/06/06 07:40:05;;;;;;;;;;;;;;;18.59;59.93;102104.34;5012861;28;20288;-53
2023/06/06 07:42:31;;;;;;;;;;;;;;;18.67;61.09;102097.56;5011965;28;19921;-56
2023/06/06 07:44:56;;;;;;;;;;;;;;;18.87;60.23;102086.53;5016496;28;19913;-56
2023/06/06 07:47:23;;;;;;;;;;;;;;;18.81;59.58;102092.56;5020541;28;19951;-55
2023/06/06 07:49:50;;;;;;;;;;;;;;;18.71;61.71;102093.28;5017926;28;19922;-55
2023/06/06 07:52:16;;;;;;;;;;;;;;;18.83;61.44;102088.22;5017948;28;19913;-54
2023/06/06 07:54:41;;;;;;;;;;;;;;;18.94;59.17;102086.66;5014993;28;19917;-55
2023/06/06 07:57:08;;;;;;;;;;;;;;;19.04;60.83;102090.22;5021545;28;19921;-56
2023/06/06 07:59:34;;;;;;;;;;;;;;;19.10;59.67;102089.44;5018359;28;19913;-56
2023/06/06 08:02:00;;;;;;;;;;;;;;;19.05;59.65;102089.41;5023189;28;19925;-56
2023/06/06 08:04:25;;;;;;;;;;;;;;;19.15;60.16;102085.16;5019021;28;19918;-56
2023/06/06 08:06:51;;;;;;;;;;;;;;;19.40;58.34;102089.78;5024353;28;19974;-55
2023/06/06 08:09:16;;;;;;;;;;;;;;;19.38;58.78;102093.25;5012768;28;20000;-56
2023/06/06 08:11:42;;;;;;;;;;;;;;;19.18;59.45;102090.44;5015241;28;20000;-54
2023/06/06 08:14:07;;;;;;;;;;;;;;;19.16;58.83;102090.38;5023813;28;19936;-56
2023/06/06 08:16:33;;;;;;;;;;;;;;;19.28;59.57;102092.25;5016164;28;19917;-53
2023/06/06 08:18:58;;;;;;;;;;;;;;;19.39;58.44;102093.25;5015749;28;20001;-56
2023/06/06 08:21:24;;;;;;;;;;;;;;;19.35;59.71;102085.38;5017356;28;20017;-55
2023/06/06 08:23:49;;;;;;;;;;;;;;;19.51;58.45;102090.78;5022072;28;19928;-54
2023/06/06 08:26:15;;;;;;;;;;;;;;;19.85;57.83;102085.09;5025241;28;19921;-54
2023/06/06 08:28:40;;;;;;;;;;;;;;;20.04;58.17;102074.81;5024212;28;19917;-56
2023/06/06 08:31:05;;;;;;;;;;;;;;;20.29;56.83;102080.22;5018948;28;19956;-55
2023/06/06 08:33:30;;;;;;;;;;;;;;;20.45;56.54;102073.38;5017748;28;19972;-56
2023/06/06 08:35:56;;;;;;;;;;;;;;;20.36;56.87;102077.66;5014238;28;20000;-57
2023/06/06 08:38:21;;;;;;;;;;;;;;;20.47;56.05;102076.91;5014244;28;19913;-56
2023/06/06 08:40:47;;;;;;;;;;;;;;;20.58;56.22;102080.44;5015788;28;20015;-56
2023/06/06 08:43:14;;;;;;;;;;;;;;;20.42;56.17;102071.59;5019374;28;20177;-56
2023/06/06 08:45:42;;;;;;;;;;;;;;;20.36;55.87;102082.88;5013508;28;20345;-57
2023/06/06 08:48:08;;;;;;;;;;;;;;;20.46;55.52;102069.94;5014422;28;19917;-56
2023/06/06 08:50:34;;;;;;;;;;;;;;;20.22;55.58;102081.91;5023090;28;20371;-55
2023/06/06 08:53:04;;;;;;;;;;;;;;;20.21;56.42;102072.34;5014372;28;19923;-56
2023/06/06 08:55:31;;;;;;;;;;;;;;;20.37;56.98;102073.31;5015540;28;19918;-54
2023/06/06 08:57:56;;;;;;;;;;;;;;;20.67;55.48;102072.66;5013435;28;19921;-54
2023/06/06 09:00:22;;;;;;;;;;;;;;;20.81;55.15;102071.00;5025613;28;19921;-54
2023/06/06 09:02:48;;;;;;;;;;;;;;;20.87;53.93;102076.25;5015992;28;20436;-48
2023/06/06 09:05:17;;;;;;;;;;;;;;;20.75;54.62;102068.34;5016584;28;20360;-48
2023/06/06 09:07:43;;;;;;;;;;;;;;;20.47;55.45;102069.06;5014628;28;19983;-47
2023/06/06 09:10:08;;;;;;;;;;;;;;;20.46;55.80;102067.31;5014005;28;20360;-45
2023/06/06 09:12:40;;;;;;;;;;;;;;;20.48;55.48;102073.41;5012657;28;19918;-44
2023/06/06 09:15:06;;;;;;;;;;;;;;;20.28;55.53;102066.28;5015460;28;20343;-46
2023/06/06 09:17:34;;;;;;;;;;;;;;;20.23;56.45;102070.59;5015754;28;20004;-44
2023/06/06 09:20:00;;;;;;;;;;;;;;;20.16;56.95;102068.81;5015559;28;19960;-45
2023/06/06 09:22:25;;;;;;;;;;;;;;;20.21;56.53;102072.34;5013762;28;20332;-48
2023/06/06 09:24:56;;;;;;;;;;;;;;;20.28;56.40;102070.63;5024400;28;20261;-45
2023/06/06 09:27:28;;;;;;;;;;;;;;;20.31;56.66;102073.25;5016382;28;19918;-46
2023/06/06 09:29:53;;;;;;;;;;;;;;;20.31;55.59;102063.69;5017517;28;20350;-47
2023/06/06 09:32:25;;;;;;;;;;;;;;;20.27;55.79;102061.94;5014022;28;19917;-47
2023/06/06 09:34:52;;;;;;;;;;;;;;;20.20;56.69;102060.13;5014192;28;19913;-44
2023/06/06 09:37:17;;;;;;;;;;;;;;;20.40;56.35;102056.78;5019347;28;19972;-47
2023/06/06 09:39:42;;;;;;;;;;;;;;;20.49;56.06;102059.47;5018062;28;19925;-47
2023/06/06 09:42:08;;;;;;;;;;;;;;;20.66;56.26;102056.97;5016096;28;19971;-47
2023/06/06 09:44:33;;;;;;;;;;;;;;;20.73;55.25;102058.75;5014440;28;19918;-48
2023/06/06 09:46:59;;;;;;;;;;;;;;;20.71;54.97;102045.69;5018890;28;20344;-46
2023/06/06 09:49:24;;;;;;;;;;;;;;;20.80;55.26;102048.31;5019943;28;20024;-44
2023/06/06 09:51:52;;;;;;;;;;;;;;;20.93;55.37;102045.75;5020610;28;20004;-45
2023/06/06 09:54:17;;;;;;;;;;;;;;;21.00;54.73;102048.44;5024300;28;19974;-46
2023/06/06 09:56:46;;;;;;;;;;;;;;;20.96;54.60;102049.28;5023650;28;19921;-46
2023/06/06 09:59:13;;;;;;;;;;;;;;;21.01;54.52;102047.56;5013172;28;20556;-47
2023/06/06 10:01:40;;;;;;;;;;;;;;;21.09;54.78;102039.72;5015157;28;19968;-46
2023/06/06 10:04:07;;;;;;;;;;;;;;;21.20;54.35;102043.25;5016684;28;19922;-44
2023/06/06 10:06:37;;;;;;;;;;;;;;;21.32;54.86;102034.59;5012843;28;20048;-45
2023/06/06 10:09:05;;;;;;;;;;;;;;;21.62;54.11;102036.41;5014610;28;19921;-48
2023/06/06 10:11:31;;;;;;;;;;;;;;;21.63;53.33;102033.78;5011819;28;19924;-44
2023/06/06 10:13:58;;;;;;;;;;;;;;;21.60;53.09;102043.38;5018979;28;20399;-46
2023/06/06 10:16:25;;;;;;;;;;;;;;;21.61;53.59;102037.28;5021287;28;19921;-48
2023/06/06 10:18:52;;;;;;;;;;;;;;;21.74;53.20;102035.53;5012708;28;19921;-47
2023/06/06 10:21:19;;;;;;;;;;;;;;;21.76;53.44;102029.41;5015495;28;20008;-45
2023/06/06 10:23:45;;;;;;;;;;;;;;;21.90;53.23;102030.31;5019806;28;19913;-47
2023/06/06 10:26:14;;;;;;;;;;;;;;;21.99;52.38;102029.41;5023102;28;19913;-44
2023/06/06 10:28:46;;;;;;;;;;;;;;;22.05;52.40;102025.91;5014707;28;19925;-46
2023/06/06 10:31:20;;;;;;;;;;;;;;;22.04;52.04;102037.28;5023441;28;19920;-45
2023/06/06 10:33:53;;;;;;;;;;;;;;;22.01;52.22;102034.66;5020356;28;20466;-48
2023/06/06 10:36:18;;;;;;;;;;;;;;;22.13;52.04;102026.81;5017624;28;19941;-47
2023/06/06 10:39:03;;;;;;;;;;;;;;;22.21;52.05;102025.94;5019958;28;20129;-45
2023/06/06 10:41:40;;;;;;;;;;;;;;;22.43;51.65;102032.00;5021748;28;20012;-47
2023/06/06 10:44:05;;;;;;;;;;;;;;;22.52;52.02;102027.63;5024115;28;19999;-47
2023/06/06 10:46:33;;;;;;;;;;;;;;;22.67;51.88;102027.56;5020691;28;20004;-43
2023/06/06 10:49:00;;;;;;;;;;;;;;;22.79;51.04;102027.50;5023550;28;20287;-48
2023/06/06 10:51:36;;;;;;;;;;;;;;;22.90;51.04;102033.63;5018901;28;20008;-47
2023/06/06 10:54:36;;;;;;;;;;;;;;;22.96;50.94;102028.34;5028112;28;20410;-46
2023/06/06 10:57:02;;;;;;;;;;;;;;;22.91;50.52;102032.72;5015238;28;19937;-44
2023/06/06 10:59:28;;;;;;;;;;;;;;;22.88;51.32;102019.66;5013975;28;19918;-48
2023/06/06 11:01:57;;;;;;;;;;;;;;;23.05;51.20;102029.16;5019205;28;19986;-44
2023/06/06 11:04:23;;;;;;;;;;;;;;;23.19;50.25;102016.84;5016567;28;20362;-48
2023/06/06 11:06:50;;;;;;;;;;;;;;;23.10;49.01;102019.53;5014960;28;19921;-44
2023/06/06 11:09:22;;;;;;;;;;;;;;;23.06;50.32;102015.19;5016959;28;19917;-48
2023/06/06 11:11:48;;;;;;;;;;;;;;;23.18;50.81;102012.50;5013349;28;19996;-49
2023/06/06 11:14:14;;;;;;;;;;;;;;;23.23;48.78;102013.31;5016417;28;20005;-47
2023/06/06 11:16:48;;;;;;;;;;;;;;;23.28;49.42;102007.16;5014611;28;19983;-45
2023/06/06 11:19:16;;;;;;;;;;;;;;;23.21;50.07;102004.59;5011439;28;19921;-44
2023/06/06 11:21:42;;;;;;;;;;;;;;;23.36;49.96;102009.75;5021818;28;19921;-44
2023/06/06 11:24:08;;;;;;;;;;;;;;;23.51;48.99;102004.38;5016750;28;20303;-44
2023/06/06 11:26:34;;;;;;;;;;;;;;;23.48;49.35;102001.81;5015837;28;19921;-44
2023/06/06 11:29:00;;;;;;;;;;;;;;;23.61;49.31;101988.56;5011856;28;19917;-45
2023/06/06 11:31:26;;;;;;;;;;;;;;;23.81;49.50;102002.44;5011914;28;20288;-45
2023/06/06 11:33:52;;;;;;;;;;;;;;;23.94;48.80;101997.94;5011473;28;19921;-44
2023/06/06 11:36:20;;;;;;;;;;;;;;;23.93;47.21;101999.69;5019448;28;19924;-44
2023/06/06 11:38:46;;;;;;;;;;;;;;;23.96;48.09;101990.91;5020783;28;19917;-47
2023/06/06 11:41:11;;;;;;;;;;;;;;;23.90;47.61;101994.44;5015231;28;19925;-46
2023/06/06 11:43:37;;;;;;;;;;;;;;;23.89;48.00;101995.34;5018563;28;19913;-47
2023/06/06 11:46:06;;;;;;;;;;;;;;;23.78;47.14;101997.19;5019292;28;19940;-47
2023/06/06 11:48:33;;;;;;;;;;;;;;;23.75;48.06;101994.59;5019083;28;19924;-45
2023/06/06 11:51:18;;;;;;;;;;;;;;;23.93;47.87;101986.56;5012411;28;20020;-46
2023/06/06 11:53:44;;;;;;;;;;;;;;;23.96;46.05;101981.25;5013637;28;19971;-46
2023/06/06 11:56:15;;;;;;;;;;;;;;;23.98;46.17;101982.13;5011238;28;19921;-48
2023/06/06 11:58:41;;;;;;;;;;;;;;;24.11;46.03;101984.63;5011136;28;19918;-51
2023/06/06 12:01:08;;;;;;;;;;;;;;;24.23;45.60;101987.13;5015324;28;19924;-45
2023/06/06 12:03:34;;;;;;;;;;;;;;;24.36;44.97;101988.78;5011798;28;20394;-44
2023/06/06 12:06:04;;;;;;;;;;;;;;;24.44;45.80;101978.16;5010075;28;20318;-48
2023/06/06 12:08:30;;;;;;;;;;;;;;;24.38;46.26;101983.50;5013579;28;19921;-45
2023/06/06 12:10:55;;;;;;;;;;;;;;;24.49;46.77;101979.84;5012505;28;19929;-46
2023/06/06 12:13:33;;;;;;;;;;;;;;;24.64;45.94;101980.56;5011219;28;19971;-46
2023/06/06 12:15:58;;;;;;;;;;;;;;;24.73;46.03;101973.41;5017599;28;19917;-48
2023/06/06 12:18:24;;;;;;;;;;;;;;;24.92;45.87;101970.53;5018179;28;19925;-46
2023/06/06 12:20:49;;;;;;;;;;;;;;;25.01;46.06;101966.03;5013383;28;19929;-46
2023/06/06 12:23:28;;;;;;;;;;;;;;;24.89;44.34;101971.44;5016206;28;20000;-44
2023/06/06 12:25:55;;;;;;;;;;;;;;;24.82;45.27;101978.56;5016075;28;20146;-46
2023/06/06 12:28:20;;;;;;;;;;;;;;;24.93;44.23;101969.63;5015367;28;20004;-47
2023/06/06 12:30:46;;;;;;;;;;;;;;;25.00;43.40;101966.91;5014932;28;20020;-46
2023/06/06 12:33:11;;;;;;;;;;;;;;;25.06;44.78;101966.88;5017691;28;19928;-48